createdAt,value
2022-11-30T00:09:58.239Z,3.86
2022-11-30T00:24:58.821Z,4.00
2022-11-30T00:39:58.599Z,4.00
2022-11-30T00:55:03.738Z,3.96
2022-11-30T01:10:05.000Z,3.97
2022-11-30T01:25:05.727Z,3.90
2022-11-30T01:40:05.903Z,3.94
2022-11-30T01:55:07.736Z,3.91
2022-11-30T02:10:09.224Z,3.84
2022-11-30T02:25:11.006Z,3.78
2022-11-30T02:40:11.362Z,3.70
2022-11-30T02:55:11.671Z,3.78
2022-11-30T03:10:11.922Z,3.88
2022-11-30T03:25:13.501Z,3.73
2022-11-30T03:40:14.072Z,3.70
2022-11-30T03:55:14.735Z,3.70
2022-11-30T04:10:16.244Z,3.69
2022-11-30T04:25:16.479Z,3.73
2022-11-30T04:40:16.664Z,3.72
2022-11-30T04:55:17.222Z,3.66
2022-11-30T05:10:19.047Z,3.72
2022-11-30T05:25:21.083Z,3.70
2022-11-30T05:40:21.612Z,3.73
2022-11-30T05:55:22.246Z,3.62
2022-11-30T06:10:22.893Z,3.68
2022-11-30T06:25:24.006Z,3.62
2022-11-30T06:40:25.135Z,3.58
2022-11-30T06:55:25.038Z,3.55
2022-11-30T07:10:25.317Z,3.61
2022-11-30T07:25:25.723Z,3.62
2022-11-30T07:40:26.603Z,3.69
2022-11-30T07:55:27.077Z,3.72
2022-11-30T08:10:27.658Z,3.79
2022-11-30T08:25:28.286Z,3.78
2022-11-30T08:40:29.411Z,3.97
2022-11-30T08:55:29.544Z,4.08
2022-11-30T09:10:30.260Z,4.16
2022-11-30T09:25:30.892Z,4.32
2022-11-30T09:40:35.532Z,4.51
2022-11-30T09:55:36.532Z,4.70
2022-11-30T10:10:37.650Z,4.92
2022-11-30T10:25:38.363Z,5.12
2022-11-30T10:40:39.206Z,5.30
2022-11-30T10:55:40.131Z,5.33
2022-11-30T11:10:40.939Z,5.40
2022-11-30T11:25:41.029Z,5.54
2022-11-30T11:40:41.113Z,5.45
2022-11-30T11:55:41.741Z,5.61
2022-11-30T12:10:51.644Z,5.68
2022-11-30T12:25:48.522Z,5.54
2022-11-30T12:40:48.767Z,5.45
2022-11-30T12:55:49.125Z,5.36
2022-11-30T13:10:49.174Z,5.15
2022-11-30T13:40:54.993Z,4.97
2022-11-30T13:55:55.045Z,4.84
2022-11-30T14:10:55.180Z,4.66
2022-11-30T14:25:56.055Z,4.41
2022-11-30T14:40:56.754Z,4.05
2022-11-30T14:55:56.804Z,3.79
2022-11-30T15:10:57.383Z,3.40
2022-11-30T15:25:58.249Z,3.21
2022-11-30T15:41:02.987Z,2.72
2022-11-30T15:56:04.325Z,2.39
2022-11-30T16:11:07.805Z,2.18
2022-11-30T16:26:18.296Z,2.07
2022-11-30T16:41:14.465Z,1.73
2022-11-30T16:56:14.942Z,1.65
2022-11-30T17:11:16.837Z,1.44
2022-11-30T17:26:17.356Z,1.50
2022-11-30T17:41:19.637Z,1.47
2022-11-30T17:56:20.684Z,1.52
2022-11-30T18:11:22.268Z,1.45
2022-11-30T18:26:22.812Z,1.44
2022-11-30T18:41:23.475Z,1.45
2022-11-30T18:56:23.703Z,1.44
2022-11-30T19:11:24.748Z,1.41
2022-11-30T19:26:25.331Z,1.40
2022-11-30T19:41:26.243Z,1.42
2022-11-30T19:56:27.017Z,1.45
2022-11-30T20:11:27.315Z,1.45
2022-11-30T20:26:27.972Z,1.52
2022-11-30T20:41:28.038Z,1.51
2022-11-30T20:56:28.328Z,1.50
2022-11-30T21:11:28.562Z,1.50
2022-11-30T21:26:28.501Z,1.42
2022-11-30T21:41:29.156Z,1.41
2022-11-30T21:56:29.784Z,1.44
2022-11-30T22:11:30.389Z,1.44
2022-11-30T22:26:30.489Z,1.37
2022-11-30T22:41:31.101Z,1.40
2022-11-30T22:56:30.815Z,1.33
2022-11-30T23:11:31.301Z,1.12
2022-11-30T23:26:31.672Z,1.14
2022-11-30T23:41:32.314Z,1.06
2022-11-30T23:56:34.676Z,1.05
